createdAt,value
2023-03-20T00:04:30.235Z,9.3
2023-03-20T00:34:49.405Z,9.25
2023-03-20T01:05:06.756Z,9.4
2023-03-20T01:35:25.373Z,9.4
2023-03-20T02:05:44.539Z,9.3
2023-03-20T02:36:01.585Z,9.25
2023-03-20T03:06:19.541Z,9.3
2023-03-20T03:36:37.944Z,9.45
2023-03-20T04:06:59.421Z,9.45
2023-03-20T04:37:15.827Z,9.55
2023-03-20T05:07:33.672Z,9.55
2023-03-20T05:37:52.252Z,9.75
2023-03-20T06:08:09.681Z,9.65
2023-03-20T06:38:28.053Z,10.05
2023-03-20T07:08:45.956Z,9.85
2023-03-20T07:39:08.025Z,10.3
2023-03-20T08:09:28.114Z,10.4
2023-03-20T08:39:49.131Z,10.75
2023-03-20T09:10:15.364Z,13.3
2023-03-20T09:40:38.544Z,14.2
2023-03-20T10:10:59.933Z,15.35
2023-03-20T10:41:15.759Z,14.7
2023-03-20T11:11:33.635Z,14.95
2023-03-20T11:41:46.496Z,15.25
2023-03-20T12:12:21.078Z,17.5
2023-03-20T12:42:39.065Z,16.85
2023-03-20T13:12:53.297Z,15.85
2023-03-20T13:43:08.171Z,15.75
2023-03-20T14:13:28.054Z,15.15
2023-03-20T14:43:46.646Z,15.2
2023-03-20T15:14:02.071Z,14.35
2023-03-20T15:44:17.011Z,13.65
2023-03-20T16:14:33.605Z,13.05
2023-03-20T16:44:50.461Z,12.55
2023-03-20T17:15:05.709Z,12.05
2023-03-20T17:45:21.691Z,11.45
2023-03-20T18:15:38.234Z,11.15
2023-03-20T18:45:55.018Z,11
2023-03-20T19:16:15.937Z,10.75
2023-03-20T19:46:40.225Z,10.65
2023-03-20T20:16:54.399Z,10.15
